Time;durP1;ratioP1;P1;durP2;ratioP2;P2;SDS_P1;SDS_P2;PMS_P1;PMS_P2;Temp;Humidity;BMP_temperature;BMP_pressure;BME280_temperature;BME280_humidity;BME280_pressure;Samples;Min_cycle;Max_cycle;Signal;HPM_P1;HPM_P2
2022/03/12 00:02:17;;;;;;;8.73;6.40;;;4.80;61.60;;;;;;5090907;28;20211;-79
2022/03/12 00:04:45;;;;;;;8.13;6.03;;;4.80;61.30;;;;;;5090706;28;20211;-79
2022/03/12 00:07:14;;;;;;;10.33;5.80;;;4.70;61.70;;;;;;5090541;28;20301;-79
2022/03/12 00:09:43;;;;;;;9.53;6.43;;;4.70;61.50;;;;;;5090193;28;20618;-79
2022/03/12 00:12:15;;;;;;;9.30;5.97;;;4.70;61.60;;;;;;5090633;28;20207;-79
2022/03/12 00:14:48;;;;;;;8.93;6.20;;;4.70;61.60;;;;;;5089987;28;20203;-79
2022/03/12 00:17:15;;;;;;;9.43;6.00;;;4.70;61.80;;;;;;5088553;28;20707;-78
2022/03/12 00:19:43;;;;;;;11.80;6.80;;;4.70;62.00;;;;;;5070164;28;20208;-79
2022/03/12 00:22:12;;;;;;;9.83;6.40;;;4.60;62.00;;;;;;5069813;28;20247;-78
2022/03/12 00:24:40;;;;;;;7.77;5.80;;;4.60;62.20;;;;;;5069756;28;20674;-79
2022/03/12 00:27:09;;;;;;;8.83;6.00;;;4.60;62.20;;;;;;5069864;28;20215;-78
2022/03/12 00:29:36;;;;;;;10.37;6.77;;;4.60;62.70;;;;;;5071012;28;20204;-78
2022/03/12 00:32:06;;;;;;;9.40;6.47;;;4.70;61.90;;;;;;5089822;28;20292;-79
2022/03/12 00:34:32;;;;;;;8.07;5.97;;;4.60;62.00;;;;;;5089709;28;20210;-79
2022/03/12 00:36:59;;;;;;;10.03;6.30;;;4.60;62.50;;;;;;5089875;28;20233;-78
2022/03/12 00:39:26;;;;;;;7.53;5.97;;;4.50;62.40;;;;;;5090040;28;20280;-79
2022/03/12 00:41:52;;;;;;;10.13;6.33;;;4.50;62.60;;;;;;5089725;28;20207;-79
2022/03/12 00:44:21;;;;;;;9.10;5.93;;;4.50;62.30;;;;;;5089307;28;20214;-79
2022/03/12 00:46:48;;;;;;;7.40;5.87;;;4.50;62.40;;;;;;5089500;28;20554;-79
2022/03/12 00:49:15;;;;;;;9.87;6.60;;;4.40;62.60;;;;;;5089294;28;20623;-79
2022/03/12 00:51:44;;;;;;;7.87;6.10;;;4.40;63.10;;;;;;5089796;28;20260;-78
2022/03/12 00:54:11;;;;;;;11.03;6.93;;;4.40;63.10;;;;;;5069866;28;20573;-79
2022/03/12 00:56:39;;;;;;;8.53;6.33;;;4.40;63.00;;;;;;5069204;28;20674;-79
2022/03/12 00:59:06;;;;;;;7.50;5.93;;;4.40;63.00;;;;;;5068923;28;20241;-79
2022/03/12 01:01:35;;;;;;;10.43;7.03;;;4.40;63.30;;;;;;5069617;28;20203;-79
2022/03/12 01:04:02;;;;;;;10.30;7.10;;;4.40;63.20;;;;;;5069160;28;20223;-79
2022/03/12 01:06:28;;;;;;;12.57;6.30;;;4.30;63.30;;;;;;5068524;28;20260;-79
2022/03/12 01:08:55;;;;;;;7.80;6.10;;;4.30;63.00;;;;;;5069056;28;20215;-79
2022/03/12 01:11:22;;;;;;;13.23;6.90;;;4.30;63.20;;;;;;5069287;28;20207;-79
2022/03/12 01:13:48;;;;;;;12.03;7.13;;;4.30;63.50;;;;;;5073015;28;20207;-80
2022/03/12 01:16:15;;;;;;;8.63;6.37;;;4.30;63.30;;;;;;5089071;28;20214;-78
2022/03/12 01:18:43;;;;;;;9.67;6.73;;;4.20;63.50;;;;;;5089055;28;20207;-79
2022/03/12 01:21:11;;;;;;;8.60;6.30;;;4.30;63.60;;;;;;5074975;28;20206;-79
2022/03/12 01:23:38;;;;;;;9.00;6.37;;;4.20;63.90;;;;;;5068339;28;20243;-79
2022/03/12 01:26:05;;;;;;;9.77;6.93;;;4.20;64.20;;;;;;5068710;28;20256;-80
2022/03/12 01:28:31;;;;;;;9.27;6.47;;;4.20;63.90;;;;;;5068967;28;20238;-79
2022/03/12 01:30:58;;;;;;;8.27;6.17;;;4.20;63.80;;;;;;5083505;28;20206;-79
2022/03/12 01:33:25;;;;;;;9.67;6.60;;;4.20;64.20;;;;;;5088792;28;20207;-79
2022/03/12 01:35:56;;;;;;;10.87;6.67;;;4.10;64.20;;;;;;5089021;28;20207;-79
2022/03/12 01:38:30;;;;;;;9.20;6.87;;;4.10;64.30;;;;;;5088744;28;20260;-78
2022/03/12 01:40:57;;;;;;;10.20;7.07;;;4.00;64.30;;;;;;5088688;28;20204;-79
2022/03/12 01:43:26;;;;;;;8.23;6.23;;;4.10;64.50;;;;;;5088648;28;20286;-78
2022/03/12 01:45:52;;;;;;;8.47;6.30;;;4.00;64.50;;;;;;5088358;28;20267;-79
2022/03/12 01:48:19;;;;;;;11.00;6.70;;;4.00;64.80;;;;;;5088360;28;20211;-79
2022/03/12 01:50:46;;;;;;;8.07;5.73;;;4.00;65.10;;;;;;5088304;28;20203;-79
2022/03/12 01:53:14;;;;;;;12.93;6.50;;;4.10;65.20;;;;;;5076657;28;20219;-79
2022/03/12 01:55:43;;;;;;;8.20;6.53;;;4.00;64.80;;;;;;5068434;28;20211;-79
2022/03/12 01:58:10;;;;;;;9.13;6.50;;;4.00;64.60;;;;;;5068341;28;20247;-79
2022/03/12 02:00:43;;;;;;;14.17;7.23;;;4.00;65.00;;;;;;5067968;28;20764;-79
2022/03/12 02:03:10;;;;;;;10.10;7.17;;;4.00;65.20;;;;;;5068420;28;20216;-79
2022/03/12 02:05:38;;;;;;;10.03;6.63;;;4.00;64.90;;;;;;5069324;28;20214;-79
2022/03/12 02:08:05;;;;;;;10.87;6.83;;;4.00;64.70;;;;;;5088294;28;20287;-78
2022/03/12 02:10:33;;;;;;;12.77;7.07;;;3.90;65.00;;;;;;5088008;28;20211;-79
2022/03/12 02:12:59;;;;;;;9.97;6.50;;;3.90;65.30;;;;;;5087814;28;20218;-79
2022/03/12 02:15:27;;;;;;;11.80;7.13;;;3.90;65.20;;;;;;5083489;28;20203;-79
2022/03/12 02:17:54;;;;;;;9.47;6.60;;;3.90;65.10;;;;;;5086731;28;20217;-79
2022/03/12 02:20:22;;;;;;;9.97;6.80;;;3.90;65.50;;;;;;5067857;28;20204;-81
2022/03/12 02:22:51;;;;;;;9.60;7.03;;;3.80;65.20;;;;;;5067489;28;20251;-79
2022/03/12 02:25:26;;;;;;;9.83;6.67;;;3.80;65.40;;;;;;5067857;28;20745;-79
2022/03/12 02:27:53;;;;;;;9.63;6.47;;;3.80;65.60;;;;;;5086045;28;20202;-79
2022/03/12 02:30:21;;;;;;;9.53;7.10;;;3.80;65.60;;;;;;5088033;28;20202;-79
2022/03/12 02:32:48;;;;;;;8.73;6.83;;;3.80;65.70;;;;;;5086364;28;20739;-80
2022/03/12 02:35:16;;;;;;;11.37;6.70;;;3.80;65.70;;;;;;5088364;28;20203;-80
2022/03/12 02:37:49;;;;;;;9.23;6.43;;;3.80;65.80;;;;;;5087749;28;20702;-79
2022/03/12 02:40:16;;;;;;;10.40;7.17;;;3.70;65.80;;;;;;5087893;28;20201;-79
2022/03/12 02:42:44;;;;;;;12.60;7.40;;;3.80;66.20;;;;;;5087825;28;20222;-79
2022/03/12 02:45:11;;;;;;;10.00;7.17;;;3.70;66.00;;;;;;5087407;28;20206;-79
2022/03/12 02:47:41;;;;;;;10.60;6.93;;;3.80;66.10;;;;;;5088021;28;20206;-79
2022/03/12 02:50:10;;;;;;;8.23;6.73;;;3.70;66.20;;;;;;5087804;28;20660;-79
2022/03/12 02:52:41;;;;;;;10.23;7.20;;;3.70;66.40;;;;;;5087752;28;20191;-79
2022/03/12 02:55:12;;;;;;;10.03;6.67;;;3.70;66.30;;;;;;5087404;28;20286;-80
2022/03/12 02:57:40;;;;;;;8.93;6.60;;;3.70;66.40;;;;;;5087901;28;20276;-79
2022/03/12 03:00:10;;;;;;;9.23;6.77;;;3.60;66.40;;;;;;5087676;28;20222;-79
2022/03/12 03:02:40;;;;;;;9.87;6.50;;;3.60;66.50;;;;;;5087608;28;20284;-79
2022/03/12 03:05:12;;;;;;;9.03;6.77;;;3.50;66.90;;;;;;5087696;28;20206;-80
2022/03/12 03:07:43;;;;;;;11.03;6.97;;;3.50;66.70;;;;;;5086664;28;20210;-80
2022/03/12 03:10:10;;;;;;;11.90;7.10;;;3.50;66.70;;;;;;5087711;28;20195;-79
2022/03/12 03:12:37;;;;;;;9.50;6.47;;;3.50;66.70;;;;;;5087781;28;20203;-79
2022/03/12 03:15:05;;;;;;;11.50;7.00;;;3.50;67.20;;;;;;5086946;28;20210;-79
2022/03/12 03:17:33;;;;;;;11.03;7.20;;;3.50;66.90;;;;;;5087429;28;20253;-79
2022/03/12 03:20:01;;;;;;;9.57;6.83;;;3.50;66.90;;;;;;5083264;28;20204;-78
2022/03/12 03:22:28;;;;;;;11.67;6.43;;;3.50;66.90;;;;;;5078988;28;20361;-79
2022/03/12 03:24:55;;;;;;;10.40;6.97;;;3.50;67.20;;;;;;5071470;28;20231;-79
2022/03/12 03:27:21;;;;;;;11.30;6.57;;;3.40;66.90;;;;;;5071144;28;20203;-79
2022/03/12 03:29:48;;;;;;;9.60;6.83;;;3.40;67.20;;;;;;5070739;28;20207;-79
2022/03/12 03:32:15;;;;;;;11.37;7.07;;;3.40;67.60;;;;;;5070999;28;20207;-79
2022/03/12 03:34:43;;;;;;;9.80;6.80;;;3.30;67.30;;;;;;5070741;28;20666;-80
2022/03/12 03:37:09;;;;;;;11.10;6.97;;;3.30;67.60;;;;;;5071049;28;20254;-79
2022/03/12 03:39:36;;;;;;;10.13;6.83;;;3.40;67.70;;;;;;5081183;28;20207;-79
2022/03/12 03:42:03;;;;;;;8.83;6.53;;;3.30;67.50;;;;;;5091083;28;20203;-79
2022/03/12 03:44:31;;;;;;;13.10;7.37;;;3.30;67.70;;;;;;5090310;28;20728;-79
2022/03/12 03:46:58;;;;;;;9.43;6.97;;;3.30;67.80;;;;;;5090669;28;20214;-79
2022/03/12 03:49:25;;;;;;;11.20;7.60;;;3.30;67.70;;;;;;5090830;28;20233;-79
2022/03/12 03:51:56;;;;;;;9.90;6.50;;;3.20;67.80;;;;;;5090887;28;20213;-79
2022/03/12 03:54:22;;;;;;;9.10;6.83;;;3.20;67.90;;;;;;5090423;28;20635;-79
2022/03/12 03:56:49;;;;;;;9.57;6.90;;;3.20;67.80;;;;;;5090496;28;20215;-78
2022/03/12 03:59:16;;;;;;;10.97;7.50;;;3.20;68.00;;;;;;5090567;28;20207;-79
2022/03/12 04:01:42;;;;;;;14.63;7.30;;;3.10;68.20;;;;;;5090581;28;20657;-80
2022/03/12 04:04:12;;;;;;;9.87;7.03;;;3.10;68.00;;;;;;5087477;28;20243;-79
2022/03/12 04:06:39;;;;;;;8.83;6.40;;;3.00;68.30;;;;;;5090728;28;20212;-79
2022/03/12 04:09:07;;;;;;;10.43;6.83;;;3.00;68.60;;;;;;5090588;28;20218;-79
2022/03/12 04:11:38;;;;;;;10.23;6.73;;;3.00;68.70;;;;;;5090252;28;20677;-79
2022/03/12 04:14:05;;;;;;;9.60;7.17;;;3.00;68.50;;;;;;5089687;28;20203;-79
2022/03/12 04:16:33;;;;;;;11.87;7.23;;;3.00;68.80;;;;;;5070232;28;20253;-79
2022/03/12 04:19:03;;;;;;;10.27;7.37;;;3.00;68.90;;;;;;5078748;28;20285;-80
2022/03/12 04:21:30;;;;;;;10.77;6.20;;;3.00;68.70;;;;;;5089592;28;20886;-78
2022/03/12 04:23:56;;;;;;;9.27;6.63;;;2.90;68.80;;;;;;5090093;28;20839;-80
2022/03/12 04:26:24;;;;;;;11.13;7.53;;;2.90;68.60;;;;;;5074891;28;20211;-80
2022/03/12 04:28:51;;;;;;;14.03;7.23;;;2.90;68.80;;;;;;5069829;28;20203;-80
2022/03/12 04:31:19;;;;;;;11.27;6.87;;;2.90;68.80;;;;;;5069886;28;20207;-79
2022/03/12 04:33:46;;;;;;;11.60;6.87;;;2.90;68.60;;;;;;5069451;28;20214;-80
2022/03/12 04:36:13;;;;;;;12.83;6.70;;;2.90;68.80;;;;;;5069866;28;20252;-79
2022/03/12 04:38:40;;;;;;;9.93;6.20;;;2.80;68.80;;;;;;5089262;28;20206;-79
2022/03/12 04:41:08;;;;;;;12.43;7.70;;;2.80;68.50;;;;;;5089974;28;20206;-80
2022/03/12 04:43:36;;;;;;;9.97;7.10;;;2.80;68.60;;;;;;5089952;28;20226;-79
2022/03/12 04:46:05;;;;;;;9.37;6.77;;;2.80;69.00;;;;;;5089357;28;20211;-80
2022/03/12 04:48:32;;;;;;;9.90;6.90;;;2.70;68.90;;;;;;5089850;28;20264;-80
2022/03/12 04:50:59;;;;;;;11.20;7.00;;;2.70;69.10;;;;;;5089283;28;20199;-80
2022/03/12 04:53:26;;;;;;;11.77;6.93;;;2.70;69.30;;;;;;5089555;28;20223;-79
2022/03/12 04:55:53;;;;;;;10.83;7.23;;;2.70;69.30;;;;;;5089465;28;20213;-79
2022/03/12 04:58:20;;;;;;;10.23;6.90;;;2.80;69.10;;;;;;5089585;28;20289;-79
2022/03/12 05:00:48;;;;;;;12.57;6.90;;;2.80;69.10;;;;;;5089209;28;20210;-79
2022/03/12 05:03:18;;;;;;;7.97;6.30;;;2.70;69.30;;;;;;5089219;28;20210;-79
2022/03/12 05:05:46;;;;;;;12.10;7.20;;;2.70;69.00;;;;;;5089773;28;20206;-80
2022/03/12 05:08:15;;;;;;;10.33;6.87;;;2.70;69.10;;;;;;5074953;28;20609;-79
2022/03/12 05:10:42;;;;;;;10.47;7.23;;;2.60;69.30;;;;;;5069357;28;20200;-79
2022/03/12 05:13:12;;;;;;;10.57;6.80;;;2.60;69.60;;;;;;5069353;28;20273;-79
2022/03/12 05:15:40;;;;;;;10.53;7.03;;;2.60;69.90;;;;;;5070071;28;20238;-80
2022/03/12 05:18:11;;;;;;;10.03;6.70;;;2.60;69.90;;;;;;5068690;28;20212;-80
2022/03/12 05:20:43;;;;;;;12.90;7.13;;;2.60;69.50;;;;;;5068787;28;20207;-80
2022/03/12 05:23:12;;;;;;;12.13;6.90;;;2.60;69.10;;;;;;5088695;28;20238;-79
2022/03/12 05:25:40;;;;;;;9.27;6.97;;;2.60;69.40;;;;;;5088601;28;20235;-79
2022/03/12 05:28:08;;;;;;;11.77;7.40;;;2.60;69.40;;;;;;5088762;28;20211;-80
2022/03/12 05:30:35;;;;;;;10.13;6.80;;;2.50;69.60;;;;;;5088563;28;20561;-79
2022/03/12 05:33:01;;;;;;;11.20;6.97;;;2.50;69.60;;;;;;5088827;28;20206;-81
2022/03/12 05:35:29;;;;;;;10.10;7.03;;;2.50;69.70;;;;;;5088531;28;20237;-80
2022/03/12 05:37:56;;;;;;;11.03;7.20;;;2.40;69.80;;;;;;5088671;28;20206;-79
2022/03/12 05:40:26;;;;;;;9.80;6.57;;;2.50;70.00;;;;;;5088503;28;20211;-79
2022/03/12 05:42:55;;;;;;;11.67;6.80;;;2.50;70.10;;;;;;5088580;28;20216;-80
2022/03/12 05:45:23;;;;;;;8.00;6.60;;;2.60;69.90;;;;;;5087579;28;20269;-80
2022/03/12 05:47:50;;;;;;;10.27;6.73;;;2.50;69.80;;;;;;5088560;28;20256;-80
2022/03/12 05:50:18;;;;;;;10.53;7.13;;;2.50;70.00;;;;;;5088697;28;20209;-80
2022/03/12 05:52:49;;;;;;;8.47;6.60;;;2.50;69.80;;;;;;5088038;28;20730;-79
2022/03/12 05:55:17;;;;;;;10.90;7.10;;;2.40;69.90;;;;;;5088293;28;20585;-80
2022/03/12 05:57:45;;;;;;;9.87;6.87;;;2.40;70.10;;;;;;5088690;28;20264;-80
2022/03/12 06:00:13;;;;;;;10.07;7.33;;;2.40;70.00;;;;;;5088184;28;20211;-80
2022/03/12 06:02:41;;;;;;;9.50;6.43;;;2.40;70.00;;;;;;5088387;28;20203;-80
2022/03/12 06:05:14;;;;;;;10.43;7.37;;;2.40;70.10;;;;;;5087975;28;20253;-80
2022/03/12 06:07:45;;;;;;;10.30;6.90;;;2.40;70.30;;;;;;5088368;28;20195;-80
2022/03/12 06:10:14;;;;;;;10.33;7.13;;;2.40;70.00;;;;;;5088414;28;20214;-80
2022/03/12 06:12:43;;;;;;;11.03;7.10;;;2.50;70.10;;;;;;5088502;28;20280;-80
2022/03/12 06:15:11;;;;;;;8.63;6.37;;;2.40;70.50;;;;;;5081956;28;20245;-80
2022/03/12 06:17:38;;;;;;;10.33;6.80;;;2.50;70.10;;;;;;5068001;28;20219;-81
2022/03/12 06:20:05;;;;;;;11.67;7.37;;;2.50;70.00;;;;;;5072600;28;20316;-80
2022/03/12 06:22:32;;;;;;;10.03;6.97;;;2.50;70.10;;;;;;5087690;28;20295;-80
2022/03/12 06:24:59;;;;;;;10.10;7.17;;;2.60;70.30;;;;;;5087644;28;20650;-80
2022/03/12 06:27:27;;;;;;;9.23;6.63;;;2.50;69.90;;;;;;5088257;28;20267;-80
2022/03/12 06:29:56;;;;;;;10.90;6.53;;;2.60;70.10;;;;;;5078622;28;20678;-80
2022/03/12 06:32:23;;;;;;;9.93;7.00;;;2.60;69.80;;;;;;5067788;28;20277;-80
2022/03/12 06:34:50;;;;;;;11.43;6.57;;;2.50;70.00;;;;;;5067909;28;20218;-80
2022/03/12 06:37:16;;;;;;;10.80;7.20;;;2.50;69.90;;;;;;5067878;28;20261;-79
2022/03/12 06:39:43;;;;;;;11.07;7.10;;;2.60;70.10;;;;;;5079901;28;20211;-81
2022/03/12 06:42:10;;;;;;;12.67;7.43;;;2.60;69.80;;;;;;5087855;28;20268;-81
2022/03/12 06:44:38;;;;;;;10.93;7.40;;;2.60;69.90;;;;;;5087593;28;20238;-81
2022/03/12 06:47:08;;;;;;;9.70;6.83;;;2.60;69.70;;;;;;5087942;28;20269;-80
2022/03/12 06:49:36;;;;;;;11.03;6.93;;;2.60;69.90;;;;;;5088193;28;20256;-81
2022/03/12 06:52:03;;;;;;;10.97;6.97;;;2.70;70.00;;;;;;5085453;28;20675;-80
2022/03/12 06:54:30;;;;;;;10.07;6.77;;;2.70;69.60;;;;;;5069696;28;20699;-81
2022/03/12 06:56:57;;;;;;;11.37;7.07;;;2.70;69.90;;;;;;5091063;28;20669;-80
2022/03/12 06:59:23;;;;;;;11.00;6.80;;;2.80;69.60;;;;;;5088621;28;20199;-81
2022/03/12 07:01:51;;;;;;;9.57;6.97;;;2.80;69.60;;;;;;5071449;28;20204;-81
2022/03/12 07:04:21;;;;;;;13.37;6.73;;;2.90;69.50;;;;;;5071533;28;20288;-81
2022/03/12 07:06:48;;;;;;;8.00;6.30;;;2.90;69.30;;;;;;5072251;28;20211;-81
2022/03/12 07:09:15;;;;;;;10.50;6.50;;;3.00;68.80;;;;;;5091803;28;20206;-81
2022/03/12 07:11:41;;;;;;;10.43;6.50;;;3.00;68.80;;;;;;5091679;28;20604;-80
2022/03/12 07:14:08;;;;;;;11.17;6.80;;;3.10;69.00;;;;;;5091144;28;20259;-80
2022/03/12 07:16:35;;;;;;;10.77;6.87;;;3.10;68.80;;;;;;5091717;28;20210;-80
2022/03/12 07:19:04;;;;;;;10.73;6.53;;;3.20;68.90;;;;;;5091227;28;20276;-80
2022/03/12 07:21:30;;;;;;;8.37;6.30;;;3.30;68.30;;;;;;5074508;28;20216;-79
2022/03/12 07:23:57;;;;;;;9.57;6.20;;;3.30;68.40;;;;;;5070928;28;20204;-80
2022/03/12 07:26:24;;;;;;;10.63;6.37;;;3.40;68.20;;;;;;5082052;28;20260;-80
2022/03/12 07:28:51;;;;;;;7.90;6.20;;;3.50;68.90;;;;;;5091273;28;20203;-80
2022/03/12 07:31:18;;;;;;;10.90;6.23;;;3.60;67.50;;;;;;5091411;28;20206;-80
2022/03/12 07:33:45;;;;;;;8.67;6.40;;;3.70;67.00;;;;;;5091449;28;20280;-80
2022/03/12 07:36:13;;;;;;;9.43;6.23;;;3.70;66.70;;;;;;5091257;28;20630;-81
2022/03/12 07:38:40;;;;;;;10.40;7.13;;;3.70;66.50;;;;;;5091100;28;20210;-81
2022/03/12 07:41:07;;;;;;;9.37;6.20;;;3.80;66.40;;;;;;5090703;28;20727;-80
2022/03/12 07:43:33;;;;;;;8.10;6.07;;;3.80;66.40;;;;;;5091318;28;20207;-80
2022/03/12 07:46:03;;;;;;;7.67;6.00;;;3.90;67.00;;;;;;5073948;28;20622;-80
2022/03/12 07:48:29;;;;;;;7.57;5.83;;;3.90;66.90;;;;;;5070544;28;20215;-80
2022/03/12 07:50:56;;;;;;;8.87;6.33;;;4.00;67.00;;;;;;5070458;28;20257;-80
2022/03/12 07:53:24;;;;;;;8.23;5.97;;;4.10;67.20;;;;;;5083550;28;20237;-79
2022/03/12 07:55:51;;;;;;;11.90;6.90;;;4.10;66.60;;;;;;5090934;28;20210;-80
2022/03/12 07:58:18;;;;;;;8.07;5.73;;;4.20;66.30;;;;;;5090953;28;20252;-80
2022/03/12 08:00:45;;;;;;;8.07;5.93;;;4.30;66.60;;;;;;5090483;28;20718;-79
2022/03/12 08:03:12;;;;;;;10.27;6.40;;;4.30;65.60;;;;;;5090616;28;20627;-80
2022/03/12 08:05:38;;;;;;;9.53;5.57;;;4.40;65.80;;;;;;5090147;28;21015;-80
2022/03/12 08:08:05;;;;;;;9.37;5.57;;;4.50;65.00;;;;;;5089669;28;20558;-80
2022/03/12 08:11:24;;;;;;;10.03;6.17;;;4.50;65.20;;;;;;5090594;28;20598;-80
2022/03/12 08:13:21;;;;;;;7.30;5.93;;;4.60;64.00;;;;;;5069801;28;20206;-80
2022/03/12 08:15:49;;;;;;;11.13;6.00;;;4.60;63.60;;;;;;5084445;28;20221;-82
2022/03/12 08:18:16;;;;;;;8.40;5.60;;;4.60;64.00;;;;;;5090175;28;20203;-80
2022/03/12 08:20:44;;;;;;;7.13;5.20;;;4.70;64.50;;;;;;5090352;28;20218;-80
2022/03/12 08:23:11;;;;;;;8.63;5.67;;;4.80;64.60;;;;;;5089925;28;20241;-80
2022/03/12 08:25:39;;;;;;;7.43;5.47;;;4.90;64.10;;;;;;5090103;28;20930;-80
2022/03/12 08:28:05;;;;;;;7.07;5.33;;;5.00;64.10;;;;;;5089918;28;20233;-80
2022/03/12 08:30:32;;;;;;;9.43;5.53;;;5.10;62.30;;;;;;5090084;28;20203;-79
2022/03/12 08:32:59;;;;;;;6.23;5.47;;;5.20;62.20;;;;;;5089857;28;20206;-80
2022/03/12 08:35:26;;;;;;;9.53;5.37;;;5.20;62.40;;;;;;5090187;28;20203;-80
2022/03/12 08:37:52;;;;;;;6.63;5.40;;;5.30;60.60;;;;;;5089859;28;20547;-80
2022/03/12 08:40:19;;;;;;;6.73;5.57;;;5.30;61.30;;;;;;5090257;28;20261;-81
2022/03/12 08:42:47;;;;;;;6.67;4.87;;;5.40;60.80;;;;;;5090287;28;20207;-81
2022/03/12 08:45:14;;;;;;;7.07;5.23;;;5.40;60.20;;;;;;5083782;28;20231;-80
2022/03/12 08:47:43;;;;;;;6.20;5.17;;;5.40;60.00;;;;;;5089733;28;20617;-80
2022/03/12 08:50:11;;;;;;;6.77;5.30;;;5.50;60.00;;;;;;5089789;28;20632;-80
2022/03/12 08:52:38;;;;;;;6.47;4.93;;;5.60;59.60;;;;;;5080429;28;20755;-80
2022/03/12 08:55:06;;;;;;;9.87;5.37;;;5.60;59.40;;;;;;5069288;28;20284;-80
2022/03/12 08:57:33;;;;;;;7.97;5.03;;;5.60;59.60;;;;;;5069458;28;20210;-80
2022/03/12 09:00:05;;;;;;;7.17;4.77;;;5.70;58.80;;;;;;5075843;28;20199;-80
2022/03/12 09:02:32;;;;;;;6.07;4.57;;;5.80;57.70;;;;;;5089804;28;20191;-80
2022/03/12 09:04:59;;;;;;;5.90;5.07;;;5.80;58.80;;;;;;5089623;28;20264;-80
2022/03/12 09:07:26;;;;;;;7.20;5.03;;;5.90;58.30;;;;;;5078032;28;20202;-80
2022/03/12 09:09:53;;;;;;;6.67;4.87;;;6.00;58.50;;;;;;5089489;28;20202;-81
2022/03/12 09:12:20;;;;;;;5.77;4.67;;;6.00;58.40;;;;;;5089548;28;20256;-81
2022/03/12 09:14:46;;;;;;;7.70;5.27;;;6.10;59.20;;;;;;5088839;28;20207;-80
2022/03/12 09:17:14;;;;;;;6.30;4.70;;;6.20;58.50;;;;;;5089658;28;20203;-80
2022/03/12 09:19:41;;;;;;;5.27;4.77;;;6.30;58.10;;;;;;5089178;28;20219;-80
2022/03/12 09:22:08;;;;;;;5.47;4.80;;;6.30;58.30;;;;;;5089479;28;20627;-81
2022/03/12 09:24:36;;;;;;;8.17;5.07;;;6.50;57.70;;;;;;5089562;28;20202;-80
2022/03/12 09:27:04;;;;;;;6.73;5.20;;;6.50;57.60;;;;;;5089060;28;20238;-79
2022/03/12 09:29:32;;;;;;;6.10;5.00;;;6.70;57.50;;;;;;5089312;28;20205;-80
2022/03/12 09:31:59;;;;;;;6.00;5.40;;;6.80;57.90;;;;;;5089202;28;20229;-80
2022/03/12 09:34:27;;;;;;;6.77;5.10;;;6.90;57.20;;;;;;5089325;28;20207;-80
2022/03/12 09:36:54;;;;;;;6.77;5.17;;;6.90;57.20;;;;;;5088813;28;20673;-80
2022/03/12 09:39:20;;;;;;;5.67;4.73;;;7.10;57.50;;;;;;5088804;28;20207;-80
2022/03/12 09:41:47;;;;;;;5.77;5.03;;;7.20;57.30;;;;;;5089054;28;20218;-80
2022/03/12 09:44:14;;;;;;;7.93;5.03;;;7.30;56.70;;;;;;5088773;28;20211;-80
2022/03/12 09:46:40;;;;;;;6.67;4.90;;;7.30;56.90;;;;;;5088903;28;20230;-80
2022/03/12 09:49:08;;;;;;;6.23;4.47;;;7.40;56.90;;;;;;5077392;28;20204;-80
2022/03/12 09:51:36;;;;;;;5.37;4.67;;;7.50;56.10;;;;;;5068203;28;20713;-80
2022/03/12 09:54:03;;;;;;;5.97;4.93;;;7.50;55.90;;;;;;5068180;28;20787;-80
2022/03/12 09:56:30;;;;;;;5.90;4.87;;;7.60;56.10;;;;;;5077435;28;20241;-80
2022/03/12 09:58:57;;;;;;;10.33;4.90;;;7.60;56.00;;;;;;5088266;28;20245;-80
2022/03/12 10:01:24;;;;;;;6.33;4.87;;;7.60;56.20;;;;;;5088752;28;20223;-80
2022/03/12 10:03:50;;;;;;;5.33;4.83;;;7.60;56.90;;;;;;5088653;28;20252;-80
2022/03/12 10:06:17;;;;;;;6.53;4.83;;;7.80;57.50;;;;;;5088231;28;20226;-80
2022/03/12 10:08:46;;;;;;;7.87;5.27;;;7.90;56.90;;;;;;5088110;28;20246;-80
2022/03/12 10:11:13;;;;;;;6.73;4.93;;;8.00;56.80;;;;;;5088433;28;20202;-80
2022/03/12 10:13:40;;;;;;;7.90;5.33;;;8.00;56.60;;;;;;5088001;28;20603;-80
2022/03/12 10:16:07;;;;;;;7.20;5.13;;;8.10;56.40;;;;;;5086227;28;20207;-80
2022/03/12 10:18:34;;;;;;;5.30;4.80;;;8.20;56.20;;;;;;5088150;28;20209;-80
2022/03/12 10:21:03;;;;;;;5.90;4.83;;;8.20;55.70;;;;;;5075441;28;20203;-80
2022/03/12 10:23:31;;;;;;;5.30;4.73;;;8.30;55.50;;;;;;5067763;28;20241;-80
2022/03/12 10:25:59;;;;;;;9.63;5.23;;;8.30;55.40;;;;;;5067866;28;20235;-79
2022/03/12 10:28:29;;;;;;;6.37;4.77;;;8.40;56.60;;;;;;5068252;28;20215;-80
2022/03/12 10:30:56;;;;;;;5.93;3.97;;;8.40;54.70;;;;;;5067494;28;20215;-80
2022/03/12 10:33:25;;;;;;;5.67;4.40;;;8.50;55.40;;;;;;5068194;28;20239;-80
2022/03/12 10:35:53;;;;;;;5.00;4.50;;;8.60;56.30;;;;;;5067712;28;20207;-79
2022/03/12 10:38:22;;;;;;;4.77;4.30;;;8.70;56.50;;;;;;5067891;28;20234;-79
2022/03/12 10:40:49;;;;;;;5.70;4.37;;;8.80;54.40;;;;;;5087955;28;20211;-79
2022/03/12 10:43:17;;;;;;;5.10;4.60;;;8.90;54.60;;;;;;5088191;28;20275;-79
2022/03/12 10:45:46;;;;;;;6.40;4.43;;;9.10;54.00;;;;;;5073527;28;20347;-79
2022/03/12 10:48:19;;;;;;;5.80;4.30;;;9.10;53.50;;;;;;5080003;28;20289;-80
2022/03/12 10:50:48;;;;;;;6.13;4.47;;;9.20;53.20;;;;;;5088128;28;20225;-79
2022/03/12 10:53:17;;;;;;;4.60;4.17;;;9.30;53.50;;;;;;5075113;28;20267;-79
2022/03/12 10:55:45;;;;;;;5.13;4.63;;;9.40;54.30;;;;;;5067725;28;20207;-79
2022/03/12 10:58:13;;;;;;;4.50;4.10;;;9.50;54.30;;;;;;5067784;28;20685;-79
2022/03/12 11:00:46;;;;;;;4.37;3.97;;;9.70;53.20;;;;;;5087052;28;20749;-80
2022/03/12 11:03:15;;;;;;;7.83;4.00;;;9.80;52.40;;;;;;5087937;28;20243;-80
2022/03/12 11:05:45;;;;;;;3.63;3.33;;;9.90;52.20;;;;;;5087888;28;20226;-80
2022/03/12 11:08:17;;;;;;;4.03;3.60;;;10.00;52.20;;;;;;5088107;28;20210;-80
2022/03/12 11:10:51;;;;;;;3.63;3.33;;;10.10;53.10;;;;;;5088181;28;20230;-80
2022/03/12 11:13:27;;;;;;;3.87;3.53;;;10.20;50.10;;;;;;5088330;28;20199;-80
2022/03/12 11:16:14;;;;;;;4.50;4.07;;;10.30;50.50;;;;;;5087433;28;20715;-80
2022/03/12 11:19:01;;;;;;;4.03;3.63;;;10.30;50.30;;;;;;5087748;28;20187;-80
2022/03/12 11:21:37;;;;;;;4.10;3.60;;;10.40;50.40;;;;;;5070965;28;20654;-79
2022/03/12 11:24:05;;;;;;;3.73;3.43;;;10.50;51.10;;;;;;5067847;28;20200;-80
2022/03/12 11:26:32;;;;;;;4.47;4.07;;;10.70;50.20;;;;;;5067506;28;20246;-80
2022/03/12 11:28:59;;;;;;;3.97;3.67;;;10.70;50.00;;;;;;5067220;28;20215;-80
2022/03/12 11:31:41;;;;;;;4.17;3.87;;;10.90;50.70;;;;;;5067853;28;20211;-80
2022/03/12 11:34:22;;;;;;;4.73;3.93;;;10.90;49.80;;;;;;5084503;28;20211;-80
2022/03/12 11:37:01;;;;;;;3.80;3.50;;;11.00;49.10;;;;;;5088023;28;20560;-80
2022/03/12 11:39:29;;;;;;;5.67;4.60;;;11.10;48.80;;;;;;5087879;28;20272;-79
2022/03/12 11:42:09;;;;;;;5.10;4.20;;;11.10;48.70;;;;;;5087642;28;20218;-80
2022/03/12 11:44:36;;;;;;;5.43;4.93;;;11.20;49.10;;;;;;5091128;28;20206;-80
2022/03/12 11:47:05;;;;;;;6.20;5.10;;;11.30;48.50;;;;;;5088900;28;20327;-79
2022/03/12 11:49:32;;;;;;;9.63;5.97;;;11.30;47.90;;;;;;5070668;28;20215;-80
2022/03/12 11:52:00;;;;;;;6.90;6.10;;;11.40;48.70;;;;;;5071785;28;20342;-80
2022/03/12 11:54:28;;;;;;;8.07;6.67;;;11.50;49.40;;;;;;5091202;28;20210;-80
2022/03/12 11:56:55;;;;;;;7.40;6.70;;;11.50;48.70;;;;;;5080842;28;20203;-80
2022/03/12 11:59:24;;;;;;;6.50;5.73;;;11.50;49.00;;;;;;5070678;28;20611;-80
2022/03/12 12:02:02;;;;;;;6.43;5.67;;;11.60;48.40;;;;;;5070563;28;20273;-80
2022/03/12 12:04:32;;;;;;;6.40;5.20;;;11.70;48.50;;;;;;5070631;28;20192;-79
2022/03/12 12:07:00;;;;;;;7.70;5.43;;;11.80;49.40;;;;;;5075396;28;20299;-80
2022/03/12 12:09:27;;;;;;;6.07;5.17;;;11.90;48.90;;;;;;5090763;28;20217;-80
2022/03/12 12:11:54;;;;;;;5.37;4.77;;;11.80;48.60;;;;;;5090644;28;20211;-81
2022/03/12 12:14:21;;;;;;;4.77;4.20;;;11.80;48.60;;;;;;5090369;28;20203;-79
2022/03/12 12:16:48;;;;;;;8.43;4.80;;;12.00;49.30;;;;;;5090733;28;20613;-80
2022/03/12 12:19:16;;;;;;;5.67;4.20;;;12.10;48.00;;;;;;5090548;28;20210;-80
2022/03/12 12:21:44;;;;;;;5.00;4.47;;;12.20;47.90;;;;;;5071825;28;20214;-80
2022/03/12 12:24:28;;;;;;;6.70;5.00;;;12.40;47.80;;;;;;5070756;28;20253;-80
2022/03/12 12:27:00;;;;;;;5.47;4.70;;;12.40;48.50;;;;;;5070250;28;20639;-80
2022/03/12 12:29:46;;;;;;;4.70;4.30;;;12.50;48.30;;;;;;5079245;28;20696;-80
2022/03/12 12:32:15;;;;;;;5.03;4.17;;;12.60;47.50;;;;;;5090744;28;20199;-80
2022/03/12 12:35:13;;;;;;;4.60;4.20;;;12.60;47.50;;;;;;5090556;28;20260;-80
2022/03/12 12:37:59;;;;;;;4.33;3.93;;;12.80;47.00;;;;;;5080874;28;20215;-80
2022/03/12 12:40:32;;;;;;;4.47;3.93;;;13.00;48.00;;;;;;5087433;28;20210;-80
2022/03/12 12:43:02;;;;;;;4.07;3.73;;;13.00;48.00;;;;;;5089712;28;20637;-81
2022/03/12 12:45:33;;;;;;;4.93;3.83;;;13.20;48.00;;;;;;5070745;28;20207;-80
2022/03/12 12:48:15;;;;;;;4.20;3.60;;;13.30;47.50;;;;;;5069199;28;20295;-80
2022/03/12 12:51:06;;;;;;;3.57;3.27;;;13.50;47.60;;;;;;5069907;28;20203;-80
2022/03/12 12:53:38;;;;;;;4.40;3.97;;;13.60;46.90;;;;;;5082023;28;20205;-80
2022/03/12 12:56:25;;;;;;;4.20;3.80;;;13.60;46.30;;;;;;5089725;28;20645;-80
2022/03/12 12:59:09;;;;;;;4.90;3.67;;;13.70;47.10;;;;;;5089577;28;20217;-80
2022/03/12 13:01:48;;;;;;;3.63;3.33;;;13.90;47.30;;;;;;5090106;28;20191;-80